Time;durP1;ratioP1;P1;durP2;ratioP2;P2;SDS_P1;SDS_P2;PMS_P1;PMS_P2;Temp;Humidity;BMP_temperature;BMP_pressure;BME280_temperature;BME280_humidity;BME280_pressure;Samples;Min_cycle;Max_cycle;Signal;HPM_P1;HPM_P2
2022/01/04 00:00:49;;;;;;;3.28;2.05;;;18.70;99.90;;;;;;4185740;28;20214;-76
2022/01/04 00:02:51;;;;;;;4.50;2.20;;;18.70;99.90;;;;;;4185826;28;20672;-76
2022/01/04 00:04:53;;;;;;;3.70;2.30;;;18.70;99.90;;;;;;4185457;28;20219;-76
2022/01/04 00:06:57;;;;;;;3.88;2.40;;;18.60;99.90;;;;;;4185014;28;20212;-76
2022/01/04 00:09:01;;;;;;;3.58;2.20;;;18.70;99.90;;;;;;4186024;28;20204;-76
2022/01/04 00:11:14;;;;;;;3.50;2.38;;;18.60;99.90;;;;;;4186459;28;20272;-76
2022/01/04 00:13:23;;;;;;;3.03;2.03;;;18.70;99.90;;;;;;4183199;28;20261;-76
2022/01/04 00:15:25;;;;;;;3.65;2.53;;;18.60;99.90;;;;;;4184567;28;20210;-76
2022/01/04 00:17:29;;;;;;;3.83;2.28;;;18.60;99.90;;;;;;4185741;28;20270;-76
2022/01/04 00:19:31;;;;;;;3.47;2.22;;;18.60;99.90;;;;;;4185059;28;20256;-76
2022/01/04 00:21:33;;;;;;;3.08;2.22;;;18.60;99.90;;;;;;4182009;28;20265;-76
2022/01/04 00:23:36;;;;;;;3.30;2.00;;;18.60;99.90;;;;;;4185858;28;20591;-76
2022/01/04 00:25:38;;;;;;;4.07;2.38;;;18.60;99.90;;;;;;4185789;28;20208;-76
2022/01/04 00:27:42;;;;;;;3.45;2.05;;;18.60;99.90;;;;;;4185407;28;20282;-77
2022/01/04 00:29:44;;;;;;;3.05;1.90;;;18.60;99.90;;;;;;4185824;28;20266;-76
2022/01/04 00:31:47;;;;;;;2.97;2.00;;;18.60;99.90;;;;;;4185472;28;20219;-76
2022/01/04 00:33:50;;;;;;;3.25;2.20;;;18.60;99.90;;;;;;4183445;28;20223;-76
2022/01/04 00:35:53;;;;;;;2.97;2.05;;;18.60;99.90;;;;;;4184314;28;20222;-76
2022/01/04 00:37:57;;;;;;;3.42;1.98;;;18.60;99.90;;;;;;4184987;28;20235;-76
2022/01/04 00:39:59;;;;;;;3.92;2.10;;;18.60;99.90;;;;;;4184570;28;20289;-76
2022/01/04 00:42:01;;;;;;;4.38;2.08;;;18.50;99.90;;;;;;4185832;28;20196;-76
2022/01/04 00:44:05;;;;;;;2.47;2.00;;;18.60;99.90;;;;;;4183773;28;20625;-76
2022/01/04 00:46:15;;;;;;;3.60;2.40;;;18.50;99.90;;;;;;4184011;28;20285;-76
2022/01/04 00:50:38;;;;;;;2.58;1.90;;;18.50;99.90;;;;;;4184330;28;20213;-76
2022/01/04 00:52:41;;;;;;;4.25;1.95;;;18.50;99.90;;;;;;4183862;28;20212;-76
2022/01/04 00:54:45;;;;;;;3.17;2.20;;;18.50;99.90;;;;;;4183272;28;20211;-76
2022/01/04 00:56:50;;;;;;;2.97;2.13;;;18.50;99.90;;;;;;4182387;28;20212;-76
2022/01/04 00:58:53;;;;;;;2.40;1.70;;;18.50;99.90;;;;;;4181437;28;20298;-76
2022/01/04 01:00:57;;;;;;;3.25;1.98;;;18.50;99.90;;;;;;4182343;28;20269;-76
2022/01/04 01:03:01;;;;;;;3.97;2.28;;;18.50;99.90;;;;;;4180188;28;20723;-76
2022/01/04 01:05:05;;;;;;;4.10;2.20;;;18.50;99.90;;;;;;4182108;28;20719;-76
2022/01/04 01:07:07;;;;;;;3.67;2.17;;;18.50;99.90;;;;;;4182236;28;20560;-76
2022/01/04 01:09:10;;;;;;;3.20;2.28;;;18.50;99.90;;;;;;4183158;28;20262;-76
2022/01/04 01:11:12;;;;;;;2.47;2.00;;;18.50;99.90;;;;;;4181629;28;20352;-76
2022/01/04 01:13:15;;;;;;;3.72;1.98;;;18.50;99.90;;;;;;4181696;28;20219;-76
2022/01/04 01:15:18;;;;;;;3.30;2.10;;;18.50;99.90;;;;;;4182656;28;20661;-76
2022/01/04 01:17:22;;;;;;;2.70;2.00;;;18.50;99.90;;;;;;4181333;28;20220;-76
2022/01/04 01:19:24;;;;;;;3.08;1.92;;;18.50;99.90;;;;;;4182096;28;20231;-76
2022/01/04 01:21:26;;;;;;;3.58;2.00;;;18.50;99.90;;;;;;4180773;28;20265;-76
2022/01/04 01:23:29;;;;;;;4.03;2.10;;;18.50;99.90;;;;;;4183004;28;20219;-76
2022/01/04 01:25:31;;;;;;;2.40;1.67;;;18.50;99.90;;;;;;4182659;28;20652;-76
2022/01/04 01:27:34;;;;;;;3.40;2.10;;;18.40;99.90;;;;;;4182286;28;20623;-76
2022/01/04 01:29:36;;;;;;;2.45;2.10;;;18.50;99.90;;;;;;4182303;28;20715;-76
2022/01/04 01:31:38;;;;;;;4.07;2.00;;;18.50;99.90;;;;;;4184657;28;20211;-76
2022/01/04 01:33:42;;;;;;;4.10;1.83;;;18.40;99.90;;;;;;4196743;28;20728;-76
2022/01/04 01:35:45;;;;;;;3.00;1.98;;;18.40;99.90;;;;;;4197062;28;20703;-76
2022/01/04 01:37:48;;;;;;;2.70;1.88;;;18.40;99.90;;;;;;4197279;28;20219;-76
2022/01/04 01:39:50;;;;;;;2.47;2.03;;;18.40;99.90;;;;;;4196801;28;20234;-76
2022/01/04 01:41:52;;;;;;;2.85;1.88;;;18.40;99.90;;;;;;4196737;28;20717;-76
2022/01/04 01:43:55;;;;;;;2.83;1.88;;;18.40;99.90;;;;;;4199022;28;20195;-76
2022/01/04 01:45:57;;;;;;;3.17;1.90;;;18.40;99.90;;;;;;4199905;28;20611;-76
2022/01/04 01:48:00;;;;;;;3.72;2.13;;;18.40;99.90;;;;;;4200235;28;20204;-76
2022/01/04 01:50:04;;;;;;;3.45;2.08;;;18.40;99.90;;;;;;4200104;28;20264;-76
2022/01/04 01:52:08;;;;;;;2.60;1.77;;;18.40;99.90;;;;;;4200163;28;20211;-76
2022/01/04 01:54:10;;;;;;;4.55;2.13;;;18.40;99.90;;;;;;4199563;28;20266;-76
2022/01/04 01:56:12;;;;;;;3.10;1.85;;;18.40;99.90;;;;;;4199666;28;20211;-76
2022/01/04 01:58:15;;;;;;;4.00;2.10;;;18.40;99.90;;;;;;4199708;28;20741;-76
2022/01/04 02:00:19;;;;;;;2.70;1.98;;;18.40;99.90;;;;;;4199965;28;20578;-76
2022/01/04 02:02:21;;;;;;;2.90;1.83;;;18.40;99.90;;;;;;4186062;28;20678;-76
2022/01/04 02:04:24;;;;;;;2.95;1.98;;;18.40;99.90;;;;;;4183060;28;20220;-76
2022/01/04 02:06:29;;;;;;;2.70;1.63;;;18.40;99.90;;;;;;4183243;28;20220;-76
2022/01/04 02:08:31;;;;;;;2.72;2.03;;;18.40;99.90;;;;;;4183233;28;20234;-76
2022/01/04 02:10:34;;;;;;;2.88;1.85;;;18.40;99.90;;;;;;4183294;28;20270;-76
2022/01/04 02:12:41;;;;;;;2.45;1.73;;;18.40;99.90;;;;;;4183217;28;20220;-76
2022/01/04 02:14:49;;;;;;;2.03;1.65;;;18.40;99.90;;;;;;4183078;28;20289;-76
2022/01/04 02:16:53;;;;;;;2.55;1.85;;;18.40;99.90;;;;;;4183051;28;20215;-76
2022/01/04 02:19:00;;;;;;;3.05;1.85;;;18.40;99.90;;;;;;4182555;28;20291;-76
2022/01/04 02:21:04;;;;;;;1.90;1.48;;;18.30;99.90;;;;;;4183079;28;20602;-76
2022/01/04 02:23:06;;;;;;;3.30;1.90;;;18.40;99.90;;;;;;4183041;28;20223;-76
2022/01/04 02:25:10;;;;;;;2.60;1.73;;;18.30;99.90;;;;;;4182668;28;20621;-76
2022/01/04 02:27:14;;;;;;;2.65;1.77;;;18.30;99.90;;;;;;4182563;28;20215;-76
2022/01/04 02:29:17;;;;;;;3.13;1.58;;;18.30;99.90;;;;;;4182643;28;20624;-76
2022/01/04 02:31:19;;;;;;;3.60;1.92;;;18.30;99.90;;;;;;4182809;28;20216;-76
2022/01/04 02:33:21;;;;;;;2.45;1.55;;;18.30;99.90;;;;;;4182632;28;20262;-76
2022/01/04 02:35:28;;;;;;;2.15;1.48;;;18.30;99.90;;;;;;4182282;28;20239;-76
2022/01/04 02:37:32;;;;;;;2.00;1.60;;;18.30;99.90;;;;;;4180375;28;20211;-76
2022/01/04 02:39:36;;;;;;;2.13;1.75;;;18.30;99.90;;;;;;4173656;28;20231;-76
2022/01/04 02:41:39;;;;;;;2.78;1.88;;;18.30;99.90;;;;;;4182730;28;20562;-76
2022/01/04 02:43:41;;;;;;;3.40;1.90;;;18.30;99.90;;;;;;4182444;28;20270;-76
2022/01/04 02:45:43;;;;;;;3.08;2.10;;;18.30;99.90;;;;;;4182306;28;20208;-76
2022/01/04 02:47:46;;;;;;;2.22;1.52;;;18.30;99.90;;;;;;4182606;28;20219;-76
2022/01/04 02:49:48;;;;;;;2.63;1.70;;;18.30;99.90;;;;;;4182712;28;20531;-76
2022/01/04 02:51:51;;;;;;;2.30;1.70;;;18.30;99.90;;;;;;4182463;28;20266;-76
2022/01/04 02:53:54;;;;;;;2.83;1.63;;;18.30;99.90;;;;;;4182422;28;20266;-76
2022/01/04 02:55:57;;;;;;;2.03;1.60;;;18.30;99.90;;;;;;4181218;28;20215;-76
2022/01/04 02:57:59;;;;;;;2.10;1.65;;;18.30;99.90;;;;;;4182708;28;20224;-76
2022/01/04 03:00:02;;;;;;;2.17;1.77;;;18.30;99.90;;;;;;4182478;28;20244;-76
2022/01/04 03:02:05;;;;;;;1.70;1.50;;;18.30;99.90;;;;;;4182251;28;20246;-76
2022/01/04 03:04:09;;;;;;;3.05;2.05;;;18.30;99.90;;;;;;4182241;28;20243;-76
2022/01/04 03:06:14;;;;;;;2.53;1.60;;;18.30;99.90;;;;;;4182059;28;20215;-76
2022/01/04 03:08:16;;;;;;;2.65;1.70;;;18.30;99.90;;;;;;4178587;28;20290;-76
2022/01/04 03:10:23;;;;;;;2.05;1.58;;;18.30;99.90;;;;;;4189403;28;20211;-76
2022/01/04 03:12:25;;;;;;;3.55;1.80;;;18.30;99.90;;;;;;4184145;28;20215;-76
2022/01/04 03:14:28;;;;;;;1.88;1.42;;;18.20;99.90;;;;;;4181787;28;21047;-76
2022/01/04 03:16:30;;;;;;;2.25;1.65;;;18.20;99.90;;;;;;4182050;28;20215;-76
2022/01/04 03:18:33;;;;;;;3.00;1.88;;;18.20;99.90;;;;;;4181692;28;20211;-76
2022/01/04 03:20:35;;;;;;;2.47;1.70;;;18.20;99.90;;;;;;4181777;28;20235;-76
2022/01/04 03:22:38;;;;;;;2.55;1.60;;;18.20;99.90;;;;;;4182043;28;20262;-76
2022/01/04 03:24:40;;;;;;;2.40;1.60;;;18.20;99.90;;;;;;4182174;28;20220;-76
2022/01/04 03:26:44;;;;;;;3.17;1.70;;;18.20;99.90;;;;;;4181762;28;20216;-76
2022/01/04 03:28:46;;;;;;;2.40;1.60;;;18.20;99.90;;;;;;4182166;28;20730;-76
2022/01/04 03:30:49;;;;;;;2.80;1.67;;;18.20;99.90;;;;;;4181931;28;20726;-76
2022/01/04 03:32:51;;;;;;;2.13;1.60;;;18.20;99.90;;;;;;4181855;28;20266;-76
2022/01/04 03:34:53;;;;;;;3.15;1.60;;;18.20;99.90;;;;;;4181397;28;20258;-76
2022/01/04 03:36:56;;;;;;;1.77;1.35;;;18.20;99.90;;;;;;4181806;28;20266;-76
2022/01/04 03:39:19;;;;;;;2.42;1.70;;;18.20;99.90;;;;;;4181925;28;20215;-76
2022/01/04 03:41:24;;;;;;;2.58;1.50;;;18.10;99.90;;;;;;4176736;28;20207;-76
2022/01/04 03:43:32;;;;;;;1.65;1.50;;;18.20;99.90;;;;;;4182080;28;20573;-76
2022/01/04 03:45:34;;;;;;;2.95;1.60;;;18.20;99.90;;;;;;4175427;28;20262;-76
2022/01/04 03:47:36;;;;;;;2.65;1.80;;;18.20;99.90;;;;;;4165196;28;20626;-76
2022/01/04 03:49:39;;;;;;;3.63;1.75;;;18.20;99.90;;;;;;4165155;28;20665;-76
2022/01/04 03:51:41;;;;;;;2.50;1.60;;;18.20;99.90;;;;;;4164918;28;20220;-76
2022/01/04 03:53:43;;;;;;;2.20;1.65;;;18.20;99.90;;;;;;4164945;28;20258;-76
2022/01/04 03:55:46;;;;;;;1.40;1.30;;;18.20;99.90;;;;;;4165282;28;20224;-76
2022/01/04 03:57:48;;;;;;;2.42;1.77;;;18.20;99.90;;;;;;4164819;28;20271;-76
2022/01/04 03:59:51;;;;;;;2.28;1.50;;;18.20;99.90;;;;;;4164839;28;20240;-76
2022/01/04 04:01:54;;;;;;;2.00;1.50;;;18.20;99.90;;;;;;4164760;28;20666;-76
2022/01/04 04:03:57;;;;;;;2.63;1.50;;;18.10;99.90;;;;;;4164515;28;20243;-76
2022/01/04 04:05:59;;;;;;;1.70;1.35;;;18.10;99.90;;;;;;4164031;28;20262;-76
2022/01/04 04:08:01;;;;;;;2.20;1.50;;;18.20;99.90;;;;;;4164936;28;20212;-76
2022/01/04 04:10:04;;;;;;;2.00;1.30;;;18.10;99.90;;;;;;4164621;28;20216;-76
2022/01/04 04:12:07;;;;;;;2.35;1.30;;;18.20;99.90;;;;;;4164679;28;20220;-76
2022/01/04 04:14:10;;;;;;;2.33;1.80;;;18.20;99.90;;;;;;4164918;28;20219;-76
2022/01/04 04:16:13;;;;;;;2.88;1.58;;;18.10;99.90;;;;;;4164958;28;20236;-76
2022/01/04 04:18:16;;;;;;;2.08;1.50;;;18.10;99.90;;;;;;4164668;28;20216;-76
2022/01/04 04:20:20;;;;;;;2.63;1.70;;;18.10;99.90;;;;;;4164463;28;20686;-76
2022/01/04 04:22:22;;;;;;;2.45;1.55;;;18.10;99.90;;;;;;4164906;28;20239;-76
2022/01/04 04:24:25;;;;;;;1.80;1.38;;;18.10;99.90;;;;;;4164536;28;20216;-76
2022/01/04 04:26:27;;;;;;;2.45;1.52;;;18.10;99.90;;;;;;4164314;28;20220;-76
2022/01/04 04:28:29;;;;;;;1.52;1.30;;;18.10;99.90;;;;;;4164429;28;20263;-76
2022/01/04 04:30:32;;;;;;;2.00;1.50;;;18.10;99.90;;;;;;4164308;28;20263;-76
2022/01/04 04:32:36;;;;;;;2.05;1.45;;;18.10;99.90;;;;;;4164872;28;20665;-76
2022/01/04 04:34:38;;;;;;;1.40;1.30;;;18.10;99.90;;;;;;4173369;28;20247;-76
2022/01/04 04:36:41;;;;;;;1.83;1.40;;;18.10;99.90;;;;;;4180673;28;20215;-76
2022/01/04 04:38:43;;;;;;;2.50;1.48;;;18.00;99.90;;;;;;4180889;28;20258;-76
2022/01/04 04:40:45;;;;;;;2.03;1.60;;;18.10;99.90;;;;;;4180581;28;20240;-76
2022/01/04 04:42:48;;;;;;;2.97;1.75;;;18.10;99.90;;;;;;4180801;28;20220;-76
2022/01/04 04:44:50;;;;;;;2.40;1.45;;;18.00;99.90;;;;;;4180685;28;20216;-76
2022/01/04 04:46:52;;;;;;;2.53;1.65;;;18.00;99.90;;;;;;4180731;28;20275;-76
2022/01/04 04:48:56;;;;;;;1.50;1.20;;;18.10;99.90;;;;;;4180927;28;20216;-76
2022/01/04 04:50:58;;;;;;;1.70;1.35;;;18.00;99.90;;;;;;4180217;28;20617;-76
2022/01/04 04:53:01;;;;;;;1.98;1.20;;;18.00;99.90;;;;;;4180667;28;20215;-76
2022/01/04 04:55:04;;;;;;;2.42;1.40;;;18.00;99.90;;;;;;4180714;28;20728;-76
2022/01/04 04:57:06;;;;;;;2.63;1.40;;;18.00;99.90;;;;;;4172635;28;20278;-76
2022/01/04 04:59:09;;;;;;;2.33;1.48;;;18.00;99.90;;;;;;4177405;28;20227;-76
2022/01/04 05:01:12;;;;;;;2.63;1.42;;;18.00;99.90;;;;;;4180497;28;20231;-76
2022/01/04 05:03:14;;;;;;;1.52;1.42;;;18.00;99.90;;;;;;4180740;28;20286;-76
2022/01/04 05:05:18;;;;;;;1.90;1.48;;;18.00;99.90;;;;;;4180679;28;20195;-76
2022/01/04 05:07:20;;;;;;;1.85;1.30;;;18.00;99.90;;;;;;4180652;28;20246;-76
2022/01/04 05:09:22;;;;;;;1.25;1.02;;;18.10;99.90;;;;;;4180237;28;20290;-76
2022/01/04 05:11:25;;;;;;;2.13;1.50;;;18.00;99.90;;;;;;4180589;28;20711;-76
2022/01/04 05:13:27;;;;;;;2.25;1.67;;;18.00;99.90;;;;;;4180613;28;20215;-76
2022/01/04 05:15:29;;;;;;;2.30;1.48;;;18.00;99.90;;;;;;4180852;28;20252;-76
2022/01/04 05:17:32;;;;;;;1.85;1.30;;;18.00;99.90;;;;;;4180509;28;21041;-76
2022/01/04 05:19:35;;;;;;;2.08;1.33;;;18.00;99.90;;;;;;4183420;28;20620;-76
2022/01/04 05:21:39;;;;;;;1.95;1.20;;;18.00;99.90;;;;;;4183242;28;20231;-76
2022/01/04 05:23:41;;;;;;;2.42;1.20;;;18.00;99.90;;;;;;4183467;28;20215;-76
2022/01/04 05:25:44;;;;;;;2.20;1.27;;;18.00;99.90;;;;;;4183685;28;20974;-76
2022/01/04 05:27:46;;;;;;;1.58;1.40;;;18.00;99.90;;;;;;4183639;28;20212;-76
2022/01/04 05:29:49;;;;;;;1.92;1.50;;;18.00;99.90;;;;;;4183527;28;20282;-76
2022/01/04 05:31:51;;;;;;;2.20;1.50;;;18.00;99.90;;;;;;4183685;28;20216;-76
2022/01/04 05:33:53;;;;;;;1.65;1.42;;;18.00;99.90;;;;;;4180047;28;20240;-76
2022/01/04 05:35:56;;;;;;;1.92;1.33;;;18.00;99.90;;;;;;4166898;28;20220;-76
2022/01/04 05:37:59;;;;;;;2.13;1.33;;;18.00;99.90;;;;;;4166933;28;20267;-76
2022/01/04 05:40:02;;;;;;;2.05;1.50;;;17.90;99.90;;;;;;4166901;28;20220;-76
2022/01/04 05:42:05;;;;;;;1.85;1.40;;;18.00;99.90;;;;;;4166802;28;20644;-76
2022/01/04 05:44:08;;;;;;;2.17;1.10;;;17.90;99.90;;;;;;4167067;28;20220;-76
2022/01/04 05:46:10;;;;;;;1.95;1.38;;;17.90;99.90;;;;;;4166966;28;20200;-76
2022/01/04 05:48:12;;;;;;;1.75;1.42;;;17.90;99.90;;;;;;4166782;28;20216;-76
2022/01/04 05:50:15;;;;;;;1.75;1.20;;;17.90;99.90;;;;;;4166727;28;20266;-76
2022/01/04 05:52:17;;;;;;;2.20;1.60;;;17.90;99.90;;;;;;4167223;28;20213;-76
2022/01/04 05:54:21;;;;;;;1.75;1.38;;;17.90;99.90;;;;;;4166790;28;20270;-75
2022/01/04 05:56:23;;;;;;;1.92;1.42;;;17.80;99.90;;;;;;4166456;28;20212;-76
2022/01/04 05:58:27;;;;;;;1.75;1.33;;;17.80;99.90;;;;;;4166787;28;20216;-76
2022/01/04 06:00:29;;;;;;;2.45;1.30;;;17.90;99.90;;;;;;4164982;28;20278;-76
2022/01/04 06:02:31;;;;;;;2.15;1.42;;;17.90;99.90;;;;;;4166667;28;20294;-76
2022/01/04 06:04:33;;;;;;;1.85;1.13;;;17.90;99.90;;;;;;4167013;28;20213;-76
2022/01/04 06:06:36;;;;;;;1.80;1.38;;;17.90;99.90;;;;;;4166493;28;20278;-76
2022/01/04 06:08:38;;;;;;;1.63;1.30;;;18.00;99.90;;;;;;4166608;28;20221;-76
2022/01/04 06:10:44;;;;;;;2.20;1.40;;;18.00;99.90;;;;;;4166190;28;20259;-76
2022/01/04 06:15:20;;;;;;;1.98;1.40;;;18.00;99.90;;;;;;4132336;28;20737;-76
2022/01/04 06:17:27;;;;;;;1.52;1.20;;;18.10;99.90;;;;;;4131901;28;20217;-75
2022/01/04 06:19:30;;;;;;;1.83;1.40;;;18.00;99.90;;;;;;4131739;28;20218;-75
2022/01/04 06:21:32;;;;;;;2.38;1.30;;;18.10;99.90;;;;;;4164507;28;20263;-76
2022/01/04 06:23:37;;;;;;;1.67;1.40;;;18.00;99.90;;;;;;4166289;28;20209;-75
2022/01/04 06:25:39;;;;;;;2.08;1.50;;;18.00;99.90;;;;;;4166398;28;20220;-75
2022/01/04 06:27:44;;;;;;;2.28;1.70;;;18.00;99.90;;;;;;4166191;28;20274;-76
2022/01/04 06:29:47;;;;;;;1.80;1.38;;;18.00;99.90;;;;;;4165756;28;20991;-76
2022/01/04 06:31:49;;;;;;;1.73;1.42;;;18.00;99.90;;;;;;4166153;28;20259;-76
2022/01/04 06:33:51;;;;;;;1.80;1.27;;;18.00;99.90;;;;;;4168548;28;21337;-76
2022/01/04 06:35:54;;;;;;;3.13;1.50;;;18.00;99.90;;;;;;4182306;28;20220;-76
2022/01/04 06:37:56;;;;;;;2.72;1.55;;;18.00;99.90;;;;;;4182512;28;20265;-76
2022/01/04 06:39:58;;;;;;;1.40;1.20;;;18.10;99.90;;;;;;4182395;28;20734;-76
2022/01/04 06:42:01;;;;;;;2.63;1.60;;;18.10;99.90;;;;;;4182843;28;20245;-76
2022/01/04 06:44:05;;;;;;;1.80;1.30;;;18.10;99.90;;;;;;4182106;28;20614;-76
2022/01/04 06:46:10;;;;;;;1.85;1.33;;;18.10;99.90;;;;;;4174691;28;20326;-75
2022/01/04 06:48:13;;;;;;;1.67;1.30;;;18.10;99.90;;;;;;4198655;28;20219;-75
2022/01/04 06:50:18;;;;;;;1.98;1.40;;;18.20;99.90;;;;;;4199144;28;20264;-75
2022/01/04 06:52:21;;;;;;;1.48;1.20;;;18.10;99.90;;;;;;4198977;28;20214;-75
2022/01/04 06:54:23;;;;;;;1.92;1.23;;;18.20;99.90;;;;;;4198994;28;20668;-75
2022/01/04 06:56:26;;;;;;;1.90;1.50;;;18.20;99.90;;;;;;4198641;28;20268;-75
2022/01/04 06:58:28;;;;;;;2.08;1.30;;;18.20;99.90;;;;;;4198894;28;20214;-75
2022/01/04 07:00:32;;;;;;;1.77;1.20;;;18.20;99.90;;;;;;4198974;28;20615;-75
2022/01/04 07:02:34;;;;;;;2.42;1.50;;;18.20;99.90;;;;;;4198203;28;20231;-75
2022/01/04 07:04:36;;;;;;;1.75;1.38;;;18.20;99.90;;;;;;4198599;28;20257;-75
2022/01/04 07:06:39;;;;;;;1.65;1.45;;;18.20;99.90;;;;;;4198736;28;20622;-75
2022/01/04 07:08:41;;;;;;;2.50;1.27;;;18.20;99.90;;;;;;4198443;28;20269;-75
2022/01/04 07:10:43;;;;;;;3.85;1.33;;;18.20;99.90;;;;;;4198567;28;20215;-75
2022/01/04 07:12:46;;;;;;;1.92;1.10;;;18.20;99.90;;;;;;4198737;28;20253;-75
2022/01/04 07:14:48;;;;;;;1.70;1.20;;;18.20;99.90;;;;;;4198217;28;20265;-75
2022/01/04 07:16:52;;;;;;;2.40;1.25;;;18.20;99.90;;;;;;4198540;28;20222;-75
2022/01/04 07:18:54;;;;;;;1.48;1.20;;;18.20;99.90;;;;;;4198520;28;20264;-75
2022/01/04 07:20:56;;;;;;;2.03;1.40;;;18.20;99.90;;;;;;4198412;28;20215;-75
2022/01/04 07:22:59;;;;;;;1.65;1.10;;;18.20;99.90;;;;;;4198406;28;20243;-75
2022/01/04 07:25:01;;;;;;;1.63;1.20;;;18.30;99.90;;;;;;4198561;28;20265;-75
2022/01/04 07:27:04;;;;;;;2.83;1.48;;;18.30;99.90;;;;;;4198423;28;20261;-75
2022/01/04 07:29:07;;;;;;;1.75;1.25;;;18.30;99.90;;;;;;4198259;28;20219;-75
2022/01/04 07:31:09;;;;;;;3.65;1.17;;;18.30;99.90;;;;;;4197871;28;20219;-75
2022/01/04 07:33:14;;;;;;;2.05;1.35;;;18.30;99.90;;;;;;4198095;28;20261;-75
2022/01/04 07:35:16;;;;;;;1.42;1.10;;;18.40;99.90;;;;;;4197885;28;20570;-75
2022/01/04 07:37:19;;;;;;;1.73;1.20;;;18.30;99.90;;;;;;4198302;28;20277;-75
2022/01/04 07:39:21;;;;;;;1.55;1.10;;;18.30;99.90;;;;;;4198301;28;20276;-75
2022/01/04 07:41:24;;;;;;;1.50;0.90;;;18.30;99.90;;;;;;4197523;28;20222;-75
2022/01/04 07:43:26;;;;;;;1.63;1.38;;;18.30;99.90;;;;;;4197599;28;20239;-75
2022/01/04 07:45:29;;;;;;;1.92;1.35;;;18.30;99.90;;;;;;4192106;28;20208;-75
2022/01/04 07:47:32;;;;;;;2.53;1.00;;;18.30;99.90;;;;;;4181527;28;20223;-75
2022/01/04 07:49:35;;;;;;;1.55;1.15;;;18.40;99.90;;;;;;4181601;28;20266;-75
2022/01/04 07:51:38;;;;;;;2.20;1.25;;;18.40;99.90;;;;;;4181379;28;20649;-75
2022/01/04 07:53:40;;;;;;;1.38;1.10;;;18.40;99.90;;;;;;4181315;28;20664;-75
2022/01/04 07:55:42;;;;;;;1.48;1.00;;;18.40;99.90;;;;;;4181153;28;20251;-75
2022/01/04 07:57:45;;;;;;;2.30;1.48;;;18.40;99.90;;;;;;4181147;28;20215;-75
2022/01/04 07:59:47;;;;;;;2.20;1.20;;;18.40;99.90;;;;;;4181497;28;20230;-75
2022/01/04 08:01:50;;;;;;;2.08;1.30;;;18.40;99.90;;;;;;4181810;28;20215;-75
2022/01/04 08:03:52;;;;;;;1.50;1.00;;;18.40;99.90;;;;;;4181170;28;20224;-75
2022/01/04 08:05:56;;;;;;;2.00;1.15;;;18.40;99.90;;;;;;4180928;28;20215;-75
2022/01/04 08:07:58;;;;;;;2.08;1.33;;;18.40;99.90;;;;;;4181623;28;20262;-75
2022/01/04 08:10:01;;;;;;;1.13;1.00;;;18.50;99.90;;;;;;4180957;28;20226;-75
2022/01/04 08:12:04;;;;;;;2.03;1.20;;;18.50;99.90;;;;;;4181145;28;20632;-75
2022/01/04 08:14:06;;;;;;;1.63;1.23;;;18.50;99.90;;;;;;4181016;28;20273;-75
2022/01/04 08:16:09;;;;;;;2.08;1.17;;;18.50;99.90;;;;;;4181390;28;20212;-75
2022/01/04 08:18:11;;;;;;;2.35;1.50;;;18.50;99.90;;;;;;4180958;28;20196;-75
2022/01/04 08:20:16;;;;;;;1.98;1.20;;;18.50;99.90;;;;;;4181331;28;20669;-75
2022/01/04 08:22:20;;;;;;;1.58;1.00;;;18.60;99.90;;;;;;4180479;28;20282;-75
2022/01/04 08:24:22;;;;;;;1.10;0.93;;;18.60;99.90;;;;;;4180498;28;20212;-75
2022/01/04 08:26:26;;;;;;;1.60;1.02;;;18.60;99.90;;;;;;4181023;28;20260;-76
2022/01/04 08:28:28;;;;;;;1.90;1.15;;;18.60;99.90;;;;;;4180407;28;20730;-75
2022/01/04 08:30:31;;;;;;;1.85;1.30;;;18.60;99.90;;;;;;4181392;28;21008;-75
2022/01/04 08:32:33;;;;;;;1.88;1.20;;;18.60;99.90;;;;;;4177750;28;20278;-75
2022/01/04 08:34:35;;;;;;;1.98;1.55;;;18.60;99.90;;;;;;4174397;28;20239;-75
2022/01/04 08:36:39;;;;;;;1.38;1.15;;;18.60;99.90;;;;;;4196913;28;20215;-75
2022/01/04 08:38:43;;;;;;;2.42;1.25;;;18.60;99.90;;;;;;4197180;28;20721;-75
2022/01/04 08:40:46;;;;;;;1.35;1.20;;;18.60;99.90;;;;;;4196905;28;20268;-75
2022/01/04 08:42:48;;;;;;;1.30;1.10;;;18.70;99.90;;;;;;4196955;28;20239;-75
2022/01/04 08:44:55;;;;;;;1.55;1.10;;;18.70;99.90;;;;;;4196787;28;20270;-75
2022/01/04 08:46:58;;;;;;;1.45;1.10;;;18.70;99.90;;;;;;4180421;28;20215;-75
2022/01/04 08:49:00;;;;;;;1.40;1.00;;;18.60;99.90;;;;;;4180641;28;20266;-75
2022/01/04 08:51:02;;;;;;;1.67;1.00;;;18.70;99.90;;;;;;4180662;28;20669;-75
2022/01/04 08:53:08;;;;;;;1.23;1.08;;;18.70;99.90;;;;;;4179750;28;20559;-75
2022/01/04 08:55:13;;;;;;;1.25;1.15;;;18.70;99.90;;;;;;4180394;28;20266;-75
2022/01/04 08:57:15;;;;;;;1.65;1.10;;;18.70;99.90;;;;;;4179984;28;20622;-75
2022/01/04 08:59:19;;;;;;;2.20;1.10;;;18.70;99.90;;;;;;4180309;28;20219;-75
2022/01/04 09:01:21;;;;;;;1.90;1.20;;;18.70;99.90;;;;;;4180229;28;20719;-75
2022/01/04 09:03:24;;;;;;;1.25;1.00;;;18.70;99.90;;;;;;4180523;28;20766;-75
2022/01/04 09:05:26;;;;;;;1.60;1.10;;;18.70;99.90;;;;;;4180195;28;20672;-75
2022/01/04 09:07:29;;;;;;;1.80;1.13;;;18.70;99.90;;;;;;4180308;28;20211;-75
2022/01/04 09:09:31;;;;;;;1.40;1.10;;;18.70;99.90;;;;;;4180403;28;20215;-75
2022/01/04 09:11:35;;;;;;;1.30;1.15;;;18.70;99.90;;;;;;4180146;28;20246;-75
2022/01/04 09:13:45;;;;;;;2.08;1.08;;;18.70;99.90;;;;;;4179357;28;20220;-75
2022/01/04 09:20:34;;;;;;;1.35;1.05;;;18.70;99.90;;;;;;4179811;28;20942;-75
2022/01/04 09:22:37;;;;;;;2.05;1.30;;;18.80;99.90;;;;;;4179392;28;20211;-75
2022/01/04 09:24:39;;;;;;;1.50;1.02;;;18.80;99.90;;;;;;4179375;28;20613;-75
2022/01/04 09:26:42;;;;;;;1.23;0.98;;;18.80;99.90;;;;;;4179415;28;20277;-75
2022/01/04 09:28:45;;;;;;;1.48;1.20;;;18.80;99.90;;;;;;4180114;28;20258;-75
2022/01/04 09:30:50;;;;;;;1.88;1.30;;;18.80;99.90;;;;;;4180063;28;20277;-75
2022/01/04 09:32:53;;;;;;;1.70;1.17;;;18.80;99.90;;;;;;4180002;28;20261;-75
2022/01/04 09:34:56;;;;;;;1.55;1.30;;;18.80;99.90;;;;;;4179685;28;20235;-75
2022/01/04 09:37:00;;;;;;;1.85;1.42;;;18.80;99.90;;;;;;4180039;28;20262;-75
2022/01/04 09:39:05;;;;;;;2.15;1.15;;;18.80;99.90;;;;;;4179927;28;20265;-75
2022/01/04 09:41:07;;;;;;;1.30;1.00;;;18.80;99.90;;;;;;4180280;28;20212;-75
2022/01/04 09:43:11;;;;;;;1.60;1.08;;;18.80;99.90;;;;;;4179733;28;20571;-75
2022/01/04 09:45:15;;;;;;;1.45;1.10;;;18.80;99.90;;;;;;4179890;28;20208;-75
2022/01/04 09:47:17;;;;;;;1.77;1.13;;;18.80;99.90;;;;;;4180038;28;20625;-75
2022/01/04 09:49:21;;;;;;;1.40;1.10;;;18.80;99.90;;;;;;4179705;28;20228;-75
2022/01/04 09:51:23;;;;;;;1.73;1.20;;;18.90;99.90;;;;;;4179821;28;20274;-75
2022/01/04 09:53:26;;;;;;;1.63;1.20;;;18.90;99.90;;;;;;4180186;28;20554;-75
2022/01/04 09:55:28;;;;;;;1.05;0.90;;;18.90;99.90;;;;;;4179834;28;20215;-75
2022/01/04 09:57:31;;;;;;;2.35;1.42;;;18.90;99.90;;;;;;4180035;28;20220;-75
2022/01/04 09:59:34;;;;;;;1.60;1.17;;;18.90;99.90;;;;;;4179562;28;20216;-75
2022/01/04 10:01:38;;;;;;;2.45;1.17;;;18.90;99.90;;;;;;4180114;28;20216;-75
2022/01/04 10:03:41;;;;;;;1.80;1.38;;;18.90;99.90;;;;;;4180054;28;20579;-75
2022/01/04 10:05:44;;;;;;;1.40;1.27;;;18.90;99.90;;;;;;4183156;28;20229;-75
2022/01/04 10:07:48;;;;;;;1.52;1.20;;;18.90;99.90;;;;;;4183093;28;20273;-75
2022/01/04 10:09:52;;;;;;;1.40;1.30;;;18.90;99.90;;;;;;4183083;28;20282;-75
2022/01/04 10:11:59;;;;;;;1.60;1.20;;;19.00;99.90;;;;;;4182622;28;20281;-75
2022/01/04 10:14:22;;;;;;;2.17;1.30;;;19.00;99.90;;;;;;4183059;28;20242;-75
2022/01/04 10:16:26;;;;;;;2.17;1.40;;;19.00;99.90;;;;;;4182720;28;20680;-75
2022/01/04 10:18:29;;;;;;;1.75;1.30;;;19.00;99.90;;;;;;4182687;28;20219;-75
2022/01/04 10:20:31;;;;;;;2.00;1.23;;;19.00;99.90;;;;;;4182587;28;20211;-75
2022/01/04 10:22:37;;;;;;;1.70;1.40;;;19.00;99.90;;;;;;4181951;28;20226;-76
2022/01/04 10:24:41;;;;;;;2.20;1.20;;;19.00;99.90;;;;;;4195999;28;20235;-75
2022/01/04 10:26:45;;;;;;;1.73;1.27;;;19.00;99.90;;;;;;4199203;28;20215;-75
2022/01/04 10:28:48;;;;;;;2.22;1.38;;;19.00;99.90;;;;;;4198961;28;20210;-75
2022/01/04 10:30:51;;;;;;;1.70;1.27;;;19.00;99.90;;;;;;4198586;28;20214;-75
2022/01/04 10:32:57;;;;;;;2.45;1.50;;;19.00;99.90;;;;;;4199021;28;20672;-75
2022/01/04 10:35:00;;;;;;;1.95;1.30;;;19.10;99.90;;;;;;4198719;28;20231;-75
2022/01/04 10:37:02;;;;;;;1.65;1.10;;;19.10;99.90;;;;;;4199083;28;20260;-75
2022/01/04 10:39:08;;;;;;;2.15;1.10;;;19.10;99.90;;;;;;4198614;28;20219;-75
2022/01/04 10:41:12;;;;;;;1.52;1.20;;;19.10;99.90;;;;;;4198946;28;20265;-75
2022/01/04 10:43:16;;;;;;;2.03;1.30;;;19.10;99.90;;;;;;4198508;28;20223;-75
2022/01/04 10:45:30;;;;;;;2.70;1.33;;;19.10;99.90;;;;;;4194735;28;20608;-75
2022/01/04 10:47:33;;;;;;;2.05;1.23;;;19.10;99.90;;;;;;4182665;28;20227;-75
2022/01/04 10:49:42;;;;;;;2.08;1.23;;;19.10;99.90;;;;;;4182151;28;20270;-75
2022/01/04 10:51:45;;;;;;;1.48;1.30;;;19.10;99.90;;;;;;4182090;28;20286;-75